sensor_id;sensor_type;location;lat;lon;timestamp;P1;durP1;ratioP1;P2;durP2;ratioP2
68744;SDS011;66104;45.456;11.064;2023-01-10T00:00:28;4.50;;;2.10;;
68744;SDS011;66104;45.456;11.064;2023-01-10T00:03:06;3.70;;;2.20;;
68744;SDS011;66104;45.456;11.064;2023-01-10T00:05:44;5.40;;;2.40;;
68744;SDS011;66104;45.456;11.064;2023-01-10T00:08:21;5.80;;;3.50;;
68744;SDS011;66104;45.456;11.064;2023-01-10T00:10:58;5.80;;;3.40;;
68744;SDS011;66104;45.456;11.064;2023-01-10T00:13:55;6.10;;;3.10;;
68744;SDS011;66104;45.456;11.064;2023-01-10T00:16:31;5.50;;;3.10;;
68744;SDS011;66104;45.456;11.064;2023-01-10T00:19:10;5.60;;;3.60;;
68744;SDS011;66104;45.456;11.064;2023-01-10T00:21:47;9.20;;;4.60;;
68744;SDS011;66104;45.456;11.064;2023-01-10T00:24:25;6.00;;;3.70;;
68744;SDS011;66104;45.456;11.064;2023-01-10T00:27:01;8.20;;;4.20;;
68744;SDS011;66104;45.456;11.064;2023-01-10T00:29:39;5.80;;;3.40;;
68744;SDS011;66104;45.456;11.064;2023-01-10T00:32:15;6.90;;;4.00;;
68744;SDS011;66104;45.456;11.064;2023-01-10T00:34:52;7.40;;;4.30;;
68744;SDS011;66104;45.456;11.064;2023-01-10T00:37:28;8.20;;;5.00;;
68744;SDS011;66104;45.456;11.064;2023-01-10T00:40:07;8.20;;;4.40;;
68744;SDS011;66104;45.456;11.064;2023-01-10T00:42:48;8.30;;;4.90;;
68744;SDS011;66104;45.456;11.064;2023-01-10T00:45:43;6.80;;;4.20;;
68744;SDS011;66104;45.456;11.064;2023-01-10T00:48:19;7.10;;;4.00;;
68744;SDS011;66104;45.456;11.064;2023-01-10T00:50:55;6.20;;;3.30;;
68744;SDS011;66104;45.456;11.064;2023-01-10T00:53:31;3.90;;;2.80;;
68744;SDS011;66104;45.456;11.064;2023-01-10T00:56:09;5.10;;;3.20;;
68744;SDS011;66104;45.456;11.064;2023-01-10T00:58:45;4.70;;;3.20;;
68744;SDS011;66104;45.456;11.064;2023-01-10T01:01:21;5.80;;;3.30;;
68744;SDS011;66104;45.456;11.064;2023-01-10T01:03:57;9.50;;;3.50;;
68744;SDS011;66104;45.456;11.064;2023-01-10T01:06:33;6.00;;;3.10;;
68744;SDS011;66104;45.456;11.064;2023-01-10T01:09:09;5.90;;;3.00;;
68744;SDS011;66104;45.456;11.064;2023-01-10T01:11:46;8.70;;;3.40;;
68744;SDS011;66104;45.456;11.064;2023-01-10T01:14:23;6.30;;;3.50;;
68744;SDS011;66104;45.456;11.064;2023-01-10T01:17:00;7.20;;;3.60;;
68744;SDS011;66104;45.456;11.064;2023-01-10T01:19:37;6.50;;;3.20;;
68744;SDS011;66104;45.456;11.064;2023-01-10T01:22:13;5.00;;;3.30;;
68744;SDS011;66104;45.456;11.064;2023-01-10T01:24:50;5.40;;;3.30;;
68744;SDS011;66104;45.456;11.064;2023-01-10T01:27:26;6.70;;;3.40;;
68744;SDS011;66104;45.456;11.064;2023-01-10T01:30:03;5.60;;;2.90;;
68744;SDS011;66104;45.456;11.064;2023-01-10T01:32:42;4.50;;;2.80;;
68744;SDS011;66104;45.456;11.064;2023-01-10T01:35:17;5.60;;;2.70;;
68744;SDS011;66104;45.456;11.064;2023-01-10T01:37:56;4.80;;;2.50;;
68744;SDS011;66104;45.456;11.064;2023-01-10T01:40:32;3.70;;;2.50;;
68744;SDS011;66104;45.456;11.064;2023-01-10T01:43:23;5.20;;;2.80;;
68744;SDS011;66104;45.456;11.064;2023-01-10T01:46:02;5.00;;;2.70;;
68744;SDS011;66104;45.456;11.064;2023-01-10T01:48:40;4.40;;;2.70;;
68744;SDS011;66104;45.456;11.064;2023-01-10T01:51:21;3.80;;;2.30;;
68744;SDS011;66104;45.456;11.064;2023-01-10T01:54:02;5.20;;;2.80;;
68744;SDS011;66104;45.456;11.064;2023-01-10T01:56:47;4.90;;;3.00;;
68744;SDS011;66104;45.456;11.064;2023-01-10T01:59:30;4.10;;;2.70;;
68744;SDS011;66104;45.456;11.064;2023-01-10T02:02:17;4.30;;;2.40;;
68744;SDS011;66104;45.456;11.064;2023-01-10T02:04:59;4.10;;;2.40;;
68744;SDS011;66104;45.456;11.064;2023-01-10T02:07:40;4.10;;;2.70;;
68744;SDS011;66104;45.456;11.064;2023-01-10T02:10:20;3.80;;;2.70;;
68744;SDS011;66104;45.456;11.064;2023-01-10T02:13:02;5.70;;;3.50;;
68744;SDS011;66104;45.456;11.064;2023-01-10T02:15:40;5.30;;;3.20;;
68744;SDS011;66104;45.456;11.064;2023-01-10T02:18:17;5.20;;;3.20;;
68744;SDS011;66104;45.456;11.064;2023-01-10T02:21:10;6.20;;;2.80;;
68744;SDS011;66104;45.456;11.064;2023-01-10T02:24:11;5.50;;;3.00;;
68744;SDS011;66104;45.456;11.064;2023-01-10T02:27:19;6.10;;;3.80;;
68744;SDS011;66104;45.456;11.064;2023-01-10T02:33:31;6.00;;;3.70;;
68744;SDS011;66104;45.456;11.064;2023-01-10T02:36:22;6.90;;;3.90;;
68744;SDS011;66104;45.456;11.064;2023-01-10T02:39:15;5.40;;;3.30;;
68744;SDS011;66104;45.456;11.064;2023-01-10T02:42:00;5.20;;;3.30;;
68744;SDS011;66104;45.456;11.064;2023-01-10T02:44:44;6.90;;;4.00;;
68744;SDS011;66104;45.456;11.064;2023-01-10T02:47:27;8.90;;;5.10;;
68744;SDS011;66104;45.456;11.064;2023-01-10T02:50:34;7.40;;;4.30;;
68744;SDS011;66104;45.456;11.064;2023-01-10T02:53:28;7.30;;;4.00;;
68744;SDS011;66104;45.456;11.064;2023-01-10T03:06:14;4.80;;;2.70;;
68744;SDS011;66104;45.456;11.064;2023-01-10T03:09:02;4.00;;;2.50;;
68744;SDS011;66104;45.456;11.064;2023-01-10T03:11:42;3.80;;;1.90;;
68744;SDS011;66104;45.456;11.064;2023-01-10T03:14:25;4.00;;;2.00;;
68744;SDS011;66104;45.456;11.064;2023-01-10T03:17:06;3.00;;;1.90;;
68744;SDS011;66104;45.456;11.064;2023-01-10T03:19:48;3.70;;;2.20;;
68744;SDS011;66104;45.456;11.064;2023-01-10T03:22:30;4.10;;;2.60;;
68744;SDS011;66104;45.456;11.064;2023-01-10T03:25:14;4.30;;;2.70;;
68744;SDS011;66104;45.456;11.064;2023-01-10T03:27:56;4.90;;;2.80;;
68744;SDS011;66104;45.456;11.064;2023-01-10T03:30:42;4.10;;;2.10;;
68744;SDS011;66104;45.456;11.064;2023-01-10T03:33:25;4.00;;;2.00;;
68744;SDS011;66104;45.456;11.064;2023-01-10T03:36:12;4.50;;;2.20;;
68744;SDS011;66104;45.456;11.064;2023-01-10T03:39:01;5.20;;;2.10;;
68744;SDS011;66104;45.456;11.064;2023-01-10T03:41:50;7.40;;;2.00;;
68744;SDS011;66104;45.456;11.064;2023-01-10T03:44:36;3.40;;;2.10;;
68744;SDS011;66104;45.456;11.064;2023-01-10T03:47:23;4.60;;;2.30;;
68744;SDS011;66104;45.456;11.064;2023-01-10T03:50:07;3.50;;;2.30;;
68744;SDS011;66104;45.456;11.064;2023-01-10T03:52:48;3.90;;;2.50;;
68744;SDS011;66104;45.456;11.064;2023-01-10T03:55:29;4.90;;;2.60;;
68744;SDS011;66104;45.456;11.064;2023-01-10T03:58:07;4.60;;;3.00;;
68744;SDS011;66104;45.456;11.064;2023-01-10T04:00:45;4.40;;;2.80;;
68744;SDS011;66104;45.456;11.064;2023-01-10T04:03:21;5.10;;;3.40;;
68744;SDS011;66104;45.456;11.064;2023-01-10T04:05:58;7.00;;;2.80;;
68744;SDS011;66104;45.456;11.064;2023-01-10T04:08:36;5.30;;;2.70;;
68744;SDS011;66104;45.456;11.064;2023-01-10T04:11:12;4.30;;;2.40;;
68744;SDS011;66104;45.456;11.064;2023-01-10T04:13:50;5.70;;;2.30;;
68744;SDS011;66104;45.456;11.064;2023-01-10T04:16:26;5.20;;;1.80;;
68744;SDS011;66104;45.456;11.064;2023-01-10T04:19:03;4.90;;;1.90;;
68744;SDS011;66104;45.456;11.064;2023-01-10T04:21:39;4.60;;;2.30;;
68744;SDS011;66104;45.456;11.064;2023-01-10T04:24:15;3.50;;;2.10;;
68744;SDS011;66104;45.456;11.064;2023-01-10T04:26:52;6.60;;;2.10;;
68744;SDS011;66104;45.456;11.064;2023-01-10T04:29:29;4.90;;;2.00;;
68744;SDS011;66104;45.456;11.064;2023-01-10T04:32:05;2.80;;;1.50;;
68744;SDS011;66104;45.456;11.064;2023-01-10T04:34:42;3.00;;;1.70;;
68744;SDS011;66104;45.456;11.064;2023-01-10T04:37:19;3.20;;;1.50;;
68744;SDS011;66104;45.456;11.064;2023-01-10T04:39:55;3.80;;;1.90;;
68744;SDS011;66104;45.456;11.064;2023-01-10T04:42:32;3.30;;;2.00;;
68744;SDS011;66104;45.456;11.064;2023-01-10T04:45:12;5.30;;;2.30;;
68744;SDS011;66104;45.456;11.064;2023-01-10T04:47:53;6.00;;;2.20;;
68744;SDS011;66104;45.456;11.064;2023-01-10T04:50:30;5.00;;;2.90;;
68744;SDS011;66104;45.456;11.064;2023-01-10T04:53:08;4.10;;;2.70;;
68744;SDS011;66104;45.456;11.064;2023-01-10T04:55:44;4.00;;;2.30;;
68744;SDS011;66104;45.456;11.064;2023-01-10T04:58:19;3.40;;;2.30;;
68744;SDS011;66104;45.456;11.064;2023-01-10T05:00:57;3.60;;;2.30;;
68744;SDS011;66104;45.456;11.064;2023-01-10T05:03:39;5.70;;;2.40;;
68744;SDS011;66104;45.456;11.064;2023-01-10T05:06:15;2.90;;;1.80;;
68744;SDS011;66104;45.456;11.064;2023-01-10T05:08:51;4.20;;;2.20;;
68744;SDS011;66104;45.456;11.064;2023-01-10T05:11:29;2.90;;;2.00;;
68744;SDS011;66104;45.456;11.064;2023-01-10T05:14:07;3.40;;;2.30;;
68744;SDS011;66104;45.456;11.064;2023-01-10T05:16:44;4.80;;;2.70;;
68744;SDS011;66104;45.456;11.064;2023-01-10T05:19:21;8.60;;;1.90;;
68744;SDS011;66104;45.456;11.064;2023-01-10T05:21:58;3.10;;;2.00;;
68744;SDS011;66104;45.456;11.064;2023-01-10T05:24:35;3.50;;;2.00;;
68744;SDS011;66104;45.456;11.064;2023-01-10T05:27:12;3.10;;;1.90;;
68744;SDS011;66104;45.456;11.064;2023-01-10T05:29:49;4.40;;;2.30;;
68744;SDS011;66104;45.456;11.064;2023-01-10T05:32:29;4.20;;;2.70;;
68744;SDS011;66104;45.456;11.064;2023-01-10T05:35:07;6.60;;;3.50;;
68744;SDS011;66104;45.456;11.064;2023-01-10T05:37:44;4.40;;;2.70;;
68744;SDS011;66104;45.456;11.064;2023-01-10T05:40:22;4.40;;;2.60;;
68744;SDS011;66104;45.456;11.064;2023-01-10T05:42:59;7.10;;;3.10;;
68744;SDS011;66104;45.456;11.064;2023-01-10T05:45:36;6.80;;;4.30;;
68744;SDS011;66104;45.456;11.064;2023-01-10T05:48:12;8.10;;;5.10;;
68744;SDS011;66104;45.456;11.064;2023-01-10T05:50:50;4.90;;;3.90;;
68744;SDS011;66104;45.456;11.064;2023-01-10T05:53:25;6.40;;;3.90;;
68744;SDS011;66104;45.456;11.064;2023-01-10T05:56:02;4.70;;;3.20;;
68744;SDS011;66104;45.456;11.064;2023-01-10T05:58:40;5.90;;;3.50;;
68744;SDS011;66104;45.456;11.064;2023-01-10T06:01:19;9.10;;;4.20;;
68744;SDS011;66104;45.456;11.064;2023-01-10T06:03:55;5.30;;;3.40;;
68744;SDS011;66104;45.456;11.064;2023-01-10T06:06:31;5.40;;;3.10;;
68744;SDS011;66104;45.456;11.064;2023-01-10T06:09:09;9.10;;;2.80;;
68744;SDS011;66104;45.456;11.064;2023-01-10T06:11:46;5.90;;;3.00;;
68744;SDS011;66104;45.456;11.064;2023-01-10T06:14:23;6.20;;;3.50;;
68744;SDS011;66104;45.456;11.064;2023-01-10T06:16:59;6.50;;;3.20;;
68744;SDS011;66104;45.456;11.064;2023-01-10T06:19:40;5.20;;;3.40;;
68744;SDS011;66104;45.456;11.064;2023-01-10T06:22:17;6.10;;;3.30;;
68744;SDS011;66104;45.456;11.064;2023-01-10T06:24:54;7.00;;;3.60;;
68744;SDS011;66104;45.456;11.064;2023-01-10T06:27:33;6.10;;;3.30;;
68744;SDS011;66104;45.456;11.064;2023-01-10T06:30:13;5.90;;;2.90;;
68744;SDS011;66104;45.456;11.064;2023-01-10T06:32:50;4.40;;;2.90;;
68744;SDS011;66104;45.456;11.064;2023-01-10T06:35:33;4.80;;;2.70;;
68744;SDS011;66104;45.456;11.064;2023-01-10T06:38:09;4.10;;;2.50;;
68744;SDS011;66104;45.456;11.064;2023-01-10T06:40:46;4.00;;;2.10;;
68744;SDS011;66104;45.456;11.064;2023-01-10T06:43:22;3.30;;;1.90;;
68744;SDS011;66104;45.456;11.064;2023-01-10T06:45:59;5.10;;;2.70;;
68744;SDS011;66104;45.456;11.064;2023-01-10T06:48:35;4.60;;;2.60;;
68744;SDS011;66104;45.456;11.064;2023-01-10T06:51:15;4.30;;;2.40;;
68744;SDS011;66104;45.456;11.064;2023-01-10T06:53:51;4.40;;;2.90;;
68744;SDS011;66104;45.456;11.064;2023-01-10T06:56:28;5.50;;;3.10;;
68744;SDS011;66104;45.456;11.064;2023-01-10T06:59:05;5.60;;;3.10;;
68744;SDS011;66104;45.456;11.064;2023-01-10T07:01:43;3.70;;;2.30;;
68744;SDS011;66104;45.456;11.064;2023-01-10T07:04:20;5.50;;;3.40;;
68744;SDS011;66104;45.456;11.064;2023-01-10T07:06:57;4.60;;;2.90;;
68744;SDS011;66104;45.456;11.064;2023-01-10T07:09:33;6.20;;;2.40;;
68744;SDS011;66104;45.456;11.064;2023-01-10T07:12:10;7.50;;;3.60;;
68744;SDS011;66104;45.456;11.064;2023-01-10T07:14:46;6.60;;;3.10;;
68744;SDS011;66104;45.456;11.064;2023-01-10T07:17:22;5.00;;;2.50;;
68744;SDS011;66104;45.456;11.064;2023-01-10T07:19:59;5.90;;;2.70;;
68744;SDS011;66104;45.456;11.064;2023-01-10T07:22:35;4.90;;;2.80;;
68744;SDS011;66104;45.456;11.064;2023-01-10T07:25:12;5.30;;;2.70;;
68744;SDS011;66104;45.456;11.064;2023-01-10T07:27:49;3.90;;;2.50;;
68744;SDS011;66104;45.456;11.064;2023-01-10T07:30:26;13.00;;;3.80;;
68744;SDS011;66104;45.456;11.064;2023-01-10T07:33:04;8.80;;;4.60;;
68744;SDS011;66104;45.456;11.064;2023-01-10T07:35:41;10.70;;;4.40;;
68744;SDS011;66104;45.456;11.064;2023-01-10T07:38:18;12.00;;;4.80;;
68744;SDS011;66104;45.456;11.064;2023-01-10T07:40:54;9.20;;;4.00;;
68744;SDS011;66104;45.456;11.064;2023-01-10T07:43:33;8.90;;;4.30;;
68744;SDS011;66104;45.456;11.064;2023-01-10T07:46:10;7.80;;;3.60;;
68744;SDS011;66104;45.456;11.064;2023-01-10T07:48:47;7.10;;;3.90;;
68744;SDS011;66104;45.456;11.064;2023-01-10T07:51:24;11.40;;;4.20;;
68744;SDS011;66104;45.456;11.064;2023-01-10T07:54:02;6.80;;;3.80;;
68744;SDS011;66104;45.456;11.064;2023-01-10T07:56:39;7.80;;;4.10;;
68744;SDS011;66104;45.456;11.064;2023-01-10T07:59:15;10.60;;;4.70;;
68744;SDS011;66104;45.456;11.064;2023-01-10T08:01:52;7.00;;;3.70;;
68744;SDS011;66104;45.456;11.064;2023-01-10T08:04:29;10.70;;;3.80;;
68744;SDS011;66104;45.456;11.064;2023-01-10T08:07:06;5.30;;;3.00;;
68744;SDS011;66104;45.456;11.064;2023-01-10T08:09:42;9.40;;;4.40;;
68744;SDS011;66104;45.456;11.064;2023-01-10T08:12:19;6.20;;;3.60;;
68744;SDS011;66104;45.456;11.064;2023-01-10T08:14:56;7.20;;;4.40;;
68744;SDS011;66104;45.456;11.064;2023-01-10T08:17:35;7.30;;;3.90;;
68744;SDS011;66104;45.456;11.064;2023-01-10T08:20:16;5.00;;;3.40;;
68744;SDS011;66104;45.456;11.064;2023-01-10T08:22:53;5.30;;;3.40;;
68744;SDS011;66104;45.456;11.064;2023-01-10T08:25:31;6.70;;;3.90;;
68744;SDS011;66104;45.456;11.064;2023-01-10T08:28:09;6.10;;;3.40;;
68744;SDS011;66104;45.456;11.064;2023-01-10T08:30:47;5.60;;;2.80;;
68744;SDS011;66104;45.456;11.064;2023-01-10T08:33:26;7.00;;;3.40;;
68744;SDS011;66104;45.456;11.064;2023-01-10T08:36:03;8.00;;;3.60;;
68744;SDS011;66104;45.456;11.064;2023-01-10T08:38:47;7.80;;;3.50;;
68744;SDS011;66104;45.456;11.064;2023-01-10T08:41:27;7.60;;;3.30;;
68744;SDS011;66104;45.456;11.064;2023-01-10T08:44:04;5.20;;;3.30;;
68744;SDS011;66104;45.456;11.064;2023-01-10T08:46:42;6.40;;;3.40;;
68744;SDS011;66104;45.456;11.064;2023-01-10T08:49:19;6.90;;;4.00;;
68744;SDS011;66104;45.456;11.064;2023-01-10T08:51:56;6.70;;;3.90;;
68744;SDS011;66104;45.456;11.064;2023-01-10T08:54:33;6.70;;;4.00;;
68744;SDS011;66104;45.456;11.064;2023-01-10T08:57:10;7.80;;;3.70;;
68744;SDS011;66104;45.456;11.064;2023-01-10T08:59:46;6.10;;;3.30;;
68744;SDS011;66104;45.456;11.064;2023-01-10T09:02:23;7.90;;;3.40;;
68744;SDS011;66104;45.456;11.064;2023-01-10T09:05:00;6.90;;;3.40;;
68744;SDS011;66104;45.456;11.064;2023-01-10T09:07:52;6.90;;;3.80;;
68744;SDS011;66104;45.456;11.064;2023-01-10T09:10:30;5.40;;;3.40;;
68744;SDS011;66104;45.456;11.064;2023-01-10T09:13:06;6.00;;;3.80;;
68744;SDS011;66104;45.456;11.064;2023-01-10T09:15:44;5.90;;;3.90;;
68744;SDS011;66104;45.456;11.064;2023-01-10T09:18:24;7.10;;;3.40;;
68744;SDS011;66104;45.456;11.064;2023-01-10T09:21:00;8.20;;;3.70;;
68744;SDS011;66104;45.456;11.064;2023-01-10T09:23:36;6.00;;;3.60;;
68744;SDS011;66104;45.456;11.064;2023-01-10T09:26:13;6.00;;;2.90;;
68744;SDS011;66104;45.456;11.064;2023-01-10T09:28:50;4.80;;;2.60;;
68744;SDS011;66104;45.456;11.064;2023-01-10T09:31:27;4.00;;;2.20;;
68744;SDS011;66104;45.456;11.064;2023-01-10T09:34:04;2.30;;;1.20;;
68744;SDS011;66104;45.456;11.064;2023-01-10T09:36:42;1.40;;;0.90;;
68744;SDS011;66104;45.456;11.064;2023-01-10T09:39:18;2.90;;;1.10;;
68744;SDS011;66104;45.456;11.064;2023-01-10T09:42:11;2.40;;;1.00;;
68744;SDS011;66104;45.456;11.064;2023-01-10T09:45:05;1.90;;;0.90;;
68744;SDS011;66104;45.456;11.064;2023-01-10T09:47:54;1.50;;;0.90;;
68744;SDS011;66104;45.456;11.064;2023-01-10T09:50:40;1.50;;;0.80;;
68744;SDS011;66104;45.456;11.064;2023-01-10T09:53:23;3.30;;;0.90;;
68744;SDS011;66104;45.456;11.064;2023-01-10T09:56:05;0.90;;;0.80;;
68744;SDS011;66104;45.456;11.064;2023-01-10T09:58:42;2.20;;;0.90;;
68744;SDS011;66104;45.456;11.064;2023-01-10T10:01:24;1.80;;;0.60;;
68744;SDS011;66104;45.456;11.064;2023-01-10T10:04:18;1.20;;;0.70;;
68744;SDS011;66104;45.456;11.064;2023-01-10T10:07:00;1.60;;;0.70;;
68744;SDS011;66104;45.456;11.064;2023-01-10T10:09:40;2.80;;;0.90;;
68744;SDS011;66104;45.456;11.064;2023-01-10T10:12:27;4.30;;;1.10;;
68744;SDS011;66104;45.456;11.064;2023-01-10T10:15:20;1.40;;;0.70;;
68744;SDS011;66104;45.456;11.064;2023-01-10T10:18:12;1.00;;;0.50;;
68744;SDS011;66104;45.456;11.064;2023-01-10T10:21:04;2.40;;;0.70;;
68744;SDS011;66104;45.456;11.064;2023-01-10T10:23:57;1.50;;;0.80;;
68744;SDS011;66104;45.456;11.064;2023-01-10T10:26:53;1.20;;;0.80;;
68744;SDS011;66104;45.456;11.064;2023-01-10T10:29:55;5.00;;;0.80;;
68744;SDS011;66104;45.456;11.064;2023-01-10T10:35:58;4.20;;;0.80;;
68744;SDS011;66104;45.456;11.064;2023-01-10T10:38:39;1.00;;;0.80;;
68744;SDS011;66104;45.456;11.064;2023-01-10T10:41:29;2.90;;;0.80;;
68744;SDS011;66104;45.456;11.064;2023-01-10T10:44:21;1.70;;;0.60;;
68744;SDS011;66104;45.456;11.064;2023-01-10T10:47:14;2.50;;;0.80;;
68744;SDS011;66104;45.456;11.064;2023-01-10T10:49:59;2.70;;;0.80;;
68744;SDS011;66104;45.456;11.064;2023-01-10T10:52:49;1.20;;;0.70;;
68744;SDS011;66104;45.456;11.064;2023-01-10T10:55:30;1.00;;;0.70;;
68744;SDS011;66104;45.456;11.064;2023-01-10T10:58:11;1.30;;;0.70;;
68744;SDS011;66104;45.456;11.064;2023-01-10T11:00:49;1.80;;;0.80;;
68744;SDS011;66104;45.456;11.064;2023-01-10T11:03:31;2.70;;;1.00;;
68744;SDS011;66104;45.456;11.064;2023-01-10T11:06:15;4.10;;;0.80;;
68744;SDS011;66104;45.456;11.064;2023-01-10T11:08:54;1.00;;;0.70;;
68744;SDS011;66104;45.456;11.064;2023-01-10T11:11:36;2.50;;;0.70;;
68744;SDS011;66104;45.456;11.064;2023-01-10T11:14:16;1.10;;;0.60;;
68744;SDS011;66104;45.456;11.064;2023-01-10T11:17:31;1.30;;;0.70;;
68744;SDS011;66104;45.456;11.064;2023-01-10T11:20:18;5.00;;;0.80;;
68744;SDS011;66104;45.456;11.064;2023-01-10T11:22:54;1.40;;;0.70;;
68744;SDS011;66104;45.456;11.064;2023-01-10T11:25:31;1.30;;;0.80;;
68744;SDS011;66104;45.456;11.064;2023-01-10T11:28:15;0.90;;;0.70;;
68744;SDS011;66104;45.456;11.064;2023-01-10T11:30:54;1.50;;;0.90;;
68744;SDS011;66104;45.456;11.064;2023-01-10T11:33:34;1.10;;;0.80;;
68744;SDS011;66104;45.456;11.064;2023-01-10T11:36:13;2.90;;;0.60;;
68744;SDS011;66104;45.456;11.064;2023-01-10T11:39:00;1.40;;;0.70;;
68744;SDS011;66104;45.456;11.064;2023-01-10T11:41:37;1.00;;;0.60;;
68744;SDS011;66104;45.456;11.064;2023-01-10T11:44:23;1.00;;;0.80;;
68744;SDS011;66104;45.456;11.064;2023-01-10T11:47:11;0.90;;;0.70;;
68744;SDS011;66104;45.456;11.064;2023-01-10T11:49:51;1.20;;;0.80;;
68744;SDS011;66104;45.456;11.064;2023-01-10T11:52:30;1.30;;;0.70;;
68744;SDS011;66104;45.456;11.064;2023-01-10T11:55:16;2.00;;;0.70;;
68744;SDS011;66104;45.456;11.064;2023-01-10T11:58:03;0.90;;;0.70;;
68744;SDS011;66104;45.456;11.064;2023-01-10T12:00:45;1.00;;;0.70;;
68744;SDS011;66104;45.456;11.064;2023-01-10T12:03:25;1.20;;;0.70;;
68744;SDS011;66104;45.456;11.064;2023-01-10T12:06:06;0.90;;;0.60;;
68744;SDS011;66104;45.456;11.064;2023-01-10T12:08:51;1.40;;;0.70;;
68744;SDS011;66104;45.456;11.064;2023-01-10T12:11:31;1.00;;;0.60;;
68744;SDS011;66104;45.456;11.064;2023-01-10T12:14:19;0.80;;;0.70;;
68744;SDS011;66104;45.456;11.064;2023-01-10T12:17:02;2.60;;;0.60;;
68744;SDS011;66104;45.456;11.064;2023-01-10T12:19:39;1.10;;;0.70;;
68744;SDS011;66104;45.456;11.064;2023-01-10T12:22:16;0.80;;;0.60;;
68744;SDS011;66104;45.456;11.064;2023-01-10T12:24:55;0.80;;;0.60;;
68744;SDS011;66104;45.456;11.064;2023-01-10T12:27:35;1.10;;;0.80;;
68744;SDS011;66104;45.456;11.064;2023-01-10T12:30:19;1.00;;;0.70;;
68744;SDS011;66104;45.456;11.064;2023-01-10T12:33:05;1.60;;;0.80;;
68744;SDS011;66104;45.456;11.064;2023-01-10T12:35:49;1.30;;;0.60;;
68744;SDS011;66104;45.456;11.064;2023-01-10T12:38:35;1.20;;;0.70;;
68744;SDS011;66104;45.456;11.064;2023-01-10T12:41:37;1.80;;;0.80;;
68744;SDS011;66104;45.456;11.064;2023-01-10T12:44:41;1.90;;;0.70;;
68744;SDS011;66104;45.456;11.064;2023-01-10T12:47:27;1.70;;;0.80;;
68744;SDS011;66104;45.456;11.064;2023-01-10T12:50:13;1.20;;;0.70;;
68744;SDS011;66104;45.456;11.064;2023-01-10T12:52:56;1.30;;;1.00;;
68744;SDS011;66104;45.456;11.064;2023-01-10T12:55:40;1.20;;;0.60;;
68744;SDS011;66104;45.456;11.064;2023-01-10T12:58:23;1.10;;;0.80;;
68744;SDS011;66104;45.456;11.064;2023-01-10T13:01:09;2.20;;;0.70;;
68744;SDS011;66104;45.456;11.064;2023-01-10T13:03:51;1.20;;;0.70;;
68744;SDS011;66104;45.456;11.064;2023-01-10T13:06:36;2.00;;;0.70;;
68744;SDS011;66104;45.456;11.064;2023-01-10T13:09:18;0.90;;;0.60;;
68744;SDS011;66104;45.456;11.064;2023-01-10T13:12:01;1.30;;;0.70;;
68744;SDS011;66104;45.456;11.064;2023-01-10T13:14:49;1.10;;;0.70;;
68744;SDS011;66104;45.456;11.064;2023-01-10T13:17:38;0.90;;;0.60;;
68744;SDS011;66104;45.456;11.064;2023-01-10T13:20:50;1.00;;;0.70;;
68744;SDS011;66104;45.456;11.064;2023-01-10T13:23:44;0.90;;;0.80;;
68744;SDS011;66104;45.456;11.064;2023-01-10T13:26:24;1.00;;;0.60;;
68744;SDS011;66104;45.456;11.064;2023-01-10T13:29:15;1.10;;;0.60;;
68744;SDS011;66104;45.456;11.064;2023-01-10T13:31:53;1.00;;;0.70;;
68744;SDS011;66104;45.456;11.064;2023-01-10T13:34:36;1.10;;;0.80;;
68744;SDS011;66104;45.456;11.064;2023-01-10T13:37:21;2.30;;;0.70;;
68744;SDS011;66104;45.456;11.064;2023-01-10T13:39:59;2.50;;;0.60;;
68744;SDS011;66104;45.456;11.064;2023-01-10T13:42:37;2.90;;;0.80;;
68744;SDS011;66104;45.456;11.064;2023-01-10T13:45:31;1.20;;;0.70;;
68744;SDS011;66104;45.456;11.064;2023-01-10T13:48:28;1.50;;;0.70;;
68744;SDS011;66104;45.456;11.064;2023-01-10T13:51:18;2.60;;;0.90;;
68744;SDS011;66104;45.456;11.064;2023-01-10T13:54:01;1.60;;;0.90;;
68744;SDS011;66104;45.456;11.064;2023-01-10T13:56:39;1.80;;;0.90;;
68744;SDS011;66104;45.456;11.064;2023-01-10T14:02:54;1.80;;;0.80;;
68744;SDS011;66104;45.456;11.064;2023-01-10T14:05:31;1.40;;;0.90;;
68744;SDS011;66104;45.456;11.064;2023-01-10T14:08:18;1.40;;;0.80;;
68744;SDS011;66104;45.456;11.064;2023-01-10T14:11:08;1.40;;;0.90;;
68744;SDS011;66104;45.456;11.064;2023-01-10T14:13:51;0.80;;;0.60;;
68744;SDS011;66104;45.456;11.064;2023-01-10T14:16:33;1.20;;;0.80;;
68744;SDS011;66104;45.456;11.064;2023-01-10T14:19:25;2.00;;;0.70;;
68744;SDS011;66104;45.456;11.064;2023-01-10T14:22:05;1.40;;;0.80;;
68744;SDS011;66104;45.456;11.064;2023-01-10T14:24:54;1.50;;;0.80;;
68744;SDS011;66104;45.456;11.064;2023-01-10T14:27:43;1.10;;;0.80;;
68744;SDS011;66104;45.456;11.064;2023-01-10T14:30:24;2.00;;;0.80;;
68744;SDS011;66104;45.456;11.064;2023-01-10T14:33:06;2.60;;;1.00;;
68744;SDS011;66104;45.456;11.064;2023-01-10T14:35:55;4.30;;;0.90;;
68744;SDS011;66104;45.456;11.064;2023-01-10T14:38:35;1.50;;;0.80;;
68744;SDS011;66104;45.456;11.064;2023-01-10T14:41:18;1.10;;;0.80;;
68744;SDS011;66104;45.456;11.064;2023-01-10T14:44:06;4.20;;;0.90;;
68744;SDS011;66104;45.456;11.064;2023-01-10T14:46:49;3.90;;;0.80;;
68744;SDS011;66104;45.456;11.064;2023-01-10T14:49:29;3.00;;;1.00;;
68744;SDS011;66104;45.456;11.064;2023-01-10T14:52:20;1.70;;;0.70;;
68744;SDS011;66104;45.456;11.064;2023-01-10T14:55:08;2.80;;;1.20;;
68744;SDS011;66104;45.456;11.064;2023-01-10T14:57:56;1.70;;;1.00;;
68744;SDS011;66104;45.456;11.064;2023-01-10T15:00:35;2.50;;;1.10;;
68744;SDS011;66104;45.456;11.064;2023-01-10T15:03:20;1.50;;;0.80;;
68744;SDS011;66104;45.456;11.064;2023-01-10T15:05:58;1.50;;;0.80;;
68744;SDS011;66104;45.456;11.064;2023-01-10T15:08:35;3.20;;;1.00;;
68744;SDS011;66104;45.456;11.064;2023-01-10T15:11:12;2.10;;;0.90;;
68744;SDS011;66104;45.456;11.064;2023-01-10T15:13:51;2.10;;;1.00;;
68744;SDS011;66104;45.456;11.064;2023-01-10T15:16:34;2.40;;;0.90;;
68744;SDS011;66104;45.456;11.064;2023-01-10T15:19:15;2.60;;;0.90;;
68744;SDS011;66104;45.456;11.064;2023-01-10T15:21:56;2.30;;;0.90;;
68744;SDS011;66104;45.456;11.064;2023-01-10T15:24:36;1.80;;;0.80;;
68744;SDS011;66104;45.456;11.064;2023-01-10T15:27:15;2.10;;;0.90;;
68744;SDS011;66104;45.456;11.064;2023-01-10T15:29:52;1.70;;;0.90;;
68744;SDS011;66104;45.456;11.064;2023-01-10T15:32:34;1.50;;;1.00;;
68744;SDS011;66104;45.456;11.064;2023-01-10T15:35:14;1.60;;;1.00;;
68744;SDS011;66104;45.456;11.064;2023-01-10T15:38:07;3.40;;;1.00;;
68744;SDS011;66104;45.456;11.064;2023-01-10T15:40:49;4.40;;;1.60;;
68744;SDS011;66104;45.456;11.064;2023-01-10T15:43:31;2.00;;;0.90;;
68744;SDS011;66104;45.456;11.064;2023-01-10T15:46:18;4.60;;;0.90;;
68744;SDS011;66104;45.456;11.064;2023-01-10T15:48:58;5.20;;;1.00;;
68744;SDS011;66104;45.456;11.064;2023-01-10T15:51:37;1.50;;;0.90;;
68744;SDS011;66104;45.456;11.064;2023-01-10T15:54:30;1.40;;;0.90;;
68744;SDS011;66104;45.456;11.064;2023-01-10T15:57:25;2.40;;;0.90;;
68744;SDS011;66104;45.456;11.064;2023-01-10T16:00:04;1.50;;;0.90;;
68744;SDS011;66104;45.456;11.064;2023-01-10T16:02:45;1.20;;;0.80;;
68744;SDS011;66104;45.456;11.064;2023-01-10T16:05:23;4.20;;;2.10;;
68744;SDS011;66104;45.456;11.064;2023-01-10T16:07:59;2.80;;;1.70;;
68744;SDS011;66104;45.456;11.064;2023-01-10T16:10:39;6.70;;;1.20;;
68744;SDS011;66104;45.456;11.064;2023-01-10T16:13:19;2.20;;;1.50;;
68744;SDS011;66104;45.456;11.064;2023-01-10T16:16:00;2.80;;;1.20;;